Time;durP1;ratioP1;P1;durP2;ratioP2;P2;SDS_P1;SDS_P2;PMS_P1;PMS_P2;Temp;Humidity;BMP_temperature;BMP_pressure;BME280_temperature;BME280_humidity;BME280_pressure;Samples;Min_cycle;Max_cycle;Signal;HPM_P1;HPM_P2
2022/12/19 00:50:50;;;;;;;;;;;12.10;99.90;;;;;;4741515;30;20050;-93
2022/12/19 00:53:17;;;;;;;;;;;12.10;99.90;;;;;;4752375;30;19921;-93
2022/12/19 00:55:43;;;;;;;14.05;7.22;;;12.10;99.90;;;;;;4751928;30;20009;-92
2022/12/19 00:58:28;;;;;;;13.63;7.88;;;12.10;99.90;;;;;;4751846;30;20127;-92
2022/12/19 01:01:43;;;;;;;;;;;;;;;;;;;;;
2022/12/19 01:04:40;;;;;;;9.85;7.55;;;12.10;99.90;;;;;;4752564;30;20047;-92
2022/12/19 01:11:06;;;;;;;13.75;7.47;;;12.20;99.90;;;;;;4714438;30;20037;-91
2022/12/19 01:13:38;;;;;;;19.02;7.70;;;12.20;99.90;;;;;;4736001;30;20140;-91
2022/12/19 01:16:17;;;;;;;15.27;7.68;;;12.20;99.90;;;;;;4735856;30;20045;-92
2022/12/19 01:18:44;;;;;;;12.07;8.15;;;12.20;99.90;;;;;;4734691;30;20044;-91
2022/12/19 01:21:19;;;;;;;12.75;8.07;;;12.20;99.90;;;;;;4734725;30;20376;-93
2022/12/19 01:23:46;;;;;;;12.98;7.93;;;12.30;99.90;;;;;;4734432;30;20414;-92
2022/12/19 01:26:13;;;;;;;10.38;8.02;;;12.20;99.90;;;;;;4785958;29;20035;-92
2022/12/19 01:28:39;;;;;;;15.15;8.00;;;12.20;99.90;;;;;;4794548;29;20107;-90
2022/12/19 01:31:06;;;;;;;11.38;8.23;;;12.20;99.90;;;;;;4808272;29;20090;-90
2022/12/19 01:33:34;;;;;;;14.48;8.20;;;12.20;99.90;;;;;;4809832;29;20035;-90
2022/12/19 01:36:06;;;;;;;12.10;7.80;;;12.20;99.90;;;;;;4811656;29;20067;-91
2022/12/19 01:38:35;;;;;;;12.13;7.53;;;12.20;99.90;;;;;;4811749;29;20038;-91
2022/12/19 01:41:07;;;;;;;15.65;8.27;;;12.20;99.90;;;;;;4811419;29;20046;-90
2022/12/19 01:43:58;;;;;;;14.23;7.75;;;12.10;99.90;;;;;;4811185;29;20073;-91
2022/12/19 01:46:50;;;;;;;10.77;7.68;;;12.10;99.90;;;;;;4811091;29;20034;-91
2022/12/19 01:49:35;;;;;;;11.40;8.25;;;12.10;99.90;;;;;;4812212;29;20146;-92
2022/12/19 01:52:08;;;;;;;11.32;7.70;;;12.10;99.90;;;;;;4827219;29;20038;-90
2022/12/19 01:54:39;;;;;;;13.90;8.40;;;12.10;99.90;;;;;;4826892;29;20396;-90
2022/12/19 01:57:18;;;;;;;9.82;7.82;;;12.10;99.90;;;;;;4826867;29;20042;-91
2022/12/19 01:59:51;;;;;;;12.48;7.57;;;12.10;99.90;;;;;;4826993;29;20492;-90
2022/12/19 02:02:50;;;;;;;10.80;7.78;;;12.10;99.90;;;;;;4826565;29;20034;-90
2022/12/19 02:05:16;;;;;;;12.20;7.90;;;12.10;99.90;;;;;;4826636;29;20037;-90
2022/12/19 02:07:44;;;;;;;11.13;7.93;;;12.10;99.90;;;;;;4826549;29;20038;-91
2022/12/19 02:10:11;;;;;;;22.55;8.50;;;12.10;99.90;;;;;;4826542;29;20496;-90
2022/12/19 02:12:41;;;;;;;9.77;7.78;;;12.10;99.90;;;;;;4826729;29;20408;-91
2022/12/19 02:15:46;;;;;;;11.85;8.10;;;12.10;99.90;;;;;;4826452;29;20034;-91
2022/12/19 02:18:53;;;;;;;10.40;7.85;;;12.10;99.90;;;;;;4811453;29;20035;-89
2022/12/19 02:21:31;;;;;;;11.77;8.13;;;12.10;99.90;;;;;;4811528;29;20030;-91
2022/12/19 02:24:17;;;;;;;12.93;8.40;;;12.10;99.90;;;;;;4826578;29;20042;-93
2022/12/19 02:27:03;;;;;;;8.95;8.02;;;12.10;99.90;;;;;;4826343;29;20110;-90
2022/12/19 02:30:09;;;;;;;16.05;8.40;;;12.10;99.90;;;;;;4826100;29;20046;-91
2022/12/19 02:33:03;;;;;;;10.95;8.85;;;12.10;99.90;;;;;;4812008;29;20555;-92
2022/12/19 02:35:52;;;;;;;9.80;8.20;;;12.10;99.90;;;;;;4826191;29;20037;-90
2022/12/19 02:38:29;;;;;;;14.77;8.60;;;12.00;99.90;;;;;;4826309;29;20035;-90
2022/12/19 02:41:14;;;;;;;10.73;8.60;;;12.00;99.90;;;;;;4826118;29;20030;-92
2022/12/19 02:43:48;;;;;;;14.05;8.77;;;12.00;99.90;;;;;;4825811;29;20039;-90
2022/12/19 02:46:16;;;;;;;10.00;7.75;;;12.00;99.90;;;;;;4826875;29;20034;-93
2022/12/19 02:48:42;;;;;;;10.27;8.50;;;12.00;99.90;;;;;;4813977;29;20046;-89
2022/12/19 02:51:09;;;;;;;12.20;8.50;;;12.00;99.90;;;;;;4814041;29;20376;-90
2022/12/19 02:53:41;;;;;;;9.82;8.32;;;12.00;99.90;;;;;;4814244;29;20442;-92
2022/12/19 02:56:30;;;;;;;13.35;9.05;;;12.00;99.90;;;;;;4814149;29;20038;-91
2022/12/19 02:59:24;;;;;;;16.63;9.15;;;12.00;99.90;;;;;;4813889;29;20038;-91
2022/12/19 03:02:16;;;;;;;13.70;9.07;;;12.00;99.90;;;;;;4813780;29;20037;-91
2022/12/19 03:04:58;;;;;;;16.73;9.32;;;11.90;99.90;;;;;;4828809;29;20067;-91
2022/12/19 03:07:45;;;;;;;11.82;8.85;;;12.00;99.90;;;;;;4813879;29;20037;-93
2022/12/19 03:10:39;;;;;;;12.10;9.63;;;12.00;99.90;;;;;;4813543;29;20038;-93
2022/12/19 03:13:09;;;;;;;;;;;12.00;99.90;;;;;;4813809;29;20034;-91
2022/12/19 03:15:46;;;;;;;11.85;8.50;;;12.00;99.90;;;;;;4828598;29;19908;-91
2022/12/19 03:18:15;;;;;;;22.25;9.32;;;11.90;99.90;;;;;;4813355;29;20034;-92
2022/12/19 03:21:12;;;;;;;16.35;9.18;;;11.90;99.90;;;;;;4813730;29;20085;-94
2022/12/19 03:23:40;;;;;;;9.43;8.43;;;11.90;99.90;;;;;;4813480;29;21741;-92
2022/12/19 03:26:11;;;;;;;9.10;8.20;;;11.90;99.90;;;;;;4813278;29;20052;-94
2022/12/19 03:28:52;;;;;;;14.98;8.13;;;11.90;99.90;;;;;;4813337;29;20046;-91
2022/12/19 03:31:23;;;;;;;13.13;8.50;;;11.80;99.90;;;;;;4813200;29;20396;-92
2022/12/19 03:33:54;;;;;;;11.45;8.70;;;11.80;99.90;;;;;;4813133;29;20053;-92
2022/12/19 03:36:36;;;;;;;13.70;8.60;;;11.70;99.90;;;;;;4813140;29;20038;-91
2022/12/19 03:39:07;;;;;;;9.40;8.35;;;11.70;99.90;;;;;;4813204;29;20044;-92
2022/12/19 03:44:21;;;;;;;9.32;8.43;;;11.70;99.90;;;;;;4828234;29;20048;-92
2022/12/19 03:46:58;;;;;;;11.75;8.63;;;11.70;99.90;;;;;;4809792;29;20552;-92
2022/12/19 03:49:26;;;;;;;14.32;8.88;;;11.60;99.90;;;;;;4825008;29;20075;-92
2022/12/19 03:52:08;;;;;;;12.43;8.45;;;11.70;99.90;;;;;;4824935;29;20035;-92
2022/12/19 03:54:40;;;;;;;12.10;8.85;;;11.60;99.90;;;;;;4824895;29;20045;-93
2022/12/19 03:57:27;;;;;;;17.17;9.05;;;11.60;99.90;;;;;;4809140;29;20083;-92
2022/12/19 04:00:13;;;;;;;9.15;8.20;;;11.60;99.90;;;;;;4824910;29;20093;-92
2022/12/19 04:02:51;;;;;;;10.65;8.88;;;11.50;99.90;;;;;;4824694;29;20039;-92
2022/12/19 04:05:23;;;;;;;17.60;8.65;;;11.50;99.90;;;;;;4825037;29;20034;-92
2022/12/19 04:07:54;;;;;;;13.35;8.60;;;11.50;99.90;;;;;;4824842;29;20035;-93
2022/12/19 04:10:24;;;;;;;10.20;8.80;;;11.50;99.90;;;;;;4824811;29;20094;-92
2022/12/19 04:13:20;;;;;;;11.13;8.65;;;11.50;99.90;;;;;;4824838;29;20058;-92
2022/12/19 04:16:11;;;;;;;10.00;8.65;;;11.50;99.90;;;;;;4798151;29;20508;-91
2022/12/19 04:18:42;;;;;;;11.77;8.27;;;11.50;99.90;;;;;;4824576;29;20070;-91
2022/12/19 04:21:32;;;;;;;9.70;8.48;;;11.50;99.90;;;;;;4824578;29;20035;-92
2022/12/19 04:24:10;;;;;;;9.27;8.25;;;11.50;99.90;;;;;;4824738;29;20086;-91
2022/12/19 04:26:43;;;;;;;18.83;9.07;;;11.50;99.90;;;;;;4824726;29;20473;-92
2022/12/19 04:29:10;;;;;;;16.83;9.45;;;11.50;99.90;;;;;;4824504;29;20046;-92
2022/12/19 04:31:38;;;;;;;17.17;9.20;;;11.50;99.90;;;;;;4809103;29;20134;-91
2022/12/19 04:34:04;;;;;;;14.40;8.50;;;11.50;99.90;;;;;;4824460;29;20125;-91
2022/12/19 04:36:31;;;;;;;19.02;8.40;;;11.50;99.90;;;;;;4809243;29;20022;-91
2022/12/19 04:38:58;;;;;;;13.40;9.75;;;11.50;99.90;;;;;;4824264;29;20034;-92
2022/12/19 04:41:25;;;;;;;16.60;9.00;;;11.50;99.90;;;;;;4824357;29;20035;-91
2022/12/19 04:43:51;;;;;;;16.15;8.95;;;11.50;99.90;;;;;;4824272;29;20030;-92
2022/12/19 04:46:21;;;;;;;10.52;8.68;;;11.50;99.90;;;;;;4825504;29;20426;-92
2022/12/19 04:48:48;;;;;;;10.30;8.45;;;11.50;99.90;;;;;;4811948;29;20484;-94
2022/12/19 04:51:17;;;;;;;11.70;8.23;;;11.50;99.90;;;;;;4812099;29;20572;-91
2022/12/19 04:53:50;;;;;;;16.38;8.80;;;11.50;99.90;;;;;;4812195;29;20516;-92
2022/12/19 04:56:17;;;;;;;13.85;8.85;;;11.50;99.90;;;;;;4812082;29;20407;-94
2022/12/19 04:58:43;;;;;;;15.15;9.23;;;11.50;99.90;;;;;;4811824;29;20392;-91
2022/12/19 05:01:12;;;;;;;13.23;9.65;;;11.50;99.90;;;;;;4811927;29;20136;-91
2022/12/19 05:03:40;;;;;;;14.02;9.75;;;11.50;99.90;;;;;;4811983;29;20057;-92
2022/12/19 05:06:10;;;;;;;12.95;9.80;;;11.50;99.90;;;;;;4811839;29;20038;-93
2022/12/19 05:08:41;;;;;;;12.40;9.75;;;11.50;99.90;;;;;;4815306;29;20046;-90
2022/12/19 05:11:13;;;;;;;14.27;9.23;;;11.50;99.90;;;;;;4815584;29;20087;-91
2022/12/19 05:13:40;;;;;;;13.18;9.75;;;11.50;99.90;;;;;;4815786;29;20038;-93
2022/12/19 05:16:11;;;;;;;12.77;8.98;;;11.40;99.90;;;;;;4815695;29;20033;-91
2022/12/19 05:18:39;;;;;;;10.60;9.45;;;11.40;99.90;;;;;;4815558;29;20041;-91
2022/12/19 05:21:06;;;;;;;19.92;10.73;;;11.40;99.90;;;;;;4815408;29;20090;-90
2022/12/19 05:23:36;;;;;;;14.80;10.30;;;11.40;99.90;;;;;;4815484;29;20042;-92
2022/12/19 05:26:04;;;;;;;12.60;9.52;;;11.40;99.90;;;;;;4815220;29;20026;-91
2022/12/19 05:28:34;;;;;;;17.02;10.48;;;11.40;99.90;;;;;;4815132;29;20050;-92
2022/12/19 05:31:08;;;;;;;23.48;9.80;;;11.40;99.90;;;;;;4815290;29;20170;-91
2022/12/19 05:33:35;;;;;;;16.48;10.02;;;11.40;99.90;;;;;;4815236;29;20037;-93
2022/12/19 05:36:02;;;;;;;15.63;10.10;;;11.50;99.90;;;;;;4815267;29;20026;-92
2022/12/19 05:38:29;;;;;;;16.88;10.48;;;11.40;99.90;;;;;;4815291;29;20073;-93
2022/12/19 05:40:56;;;;;;;17.15;10.30;;;11.40;99.90;;;;;;4815359;29;20026;-93
2022/12/19 05:43:23;;;;;;;11.50;10.43;;;11.40;99.90;;;;;;4815687;29;20033;-92
2022/12/19 05:45:49;;;;;;;13.40;9.77;;;11.40;99.90;;;;;;4815071;29;20037;-93
2022/12/19 05:48:16;;;;;;;19.88;10.40;;;11.40;99.90;;;;;;4811700;29;20054;-91
2022/12/19 05:50:50;;;;;;;24.77;10.73;;;11.40;99.90;;;;;;4826957;29;20038;-93
2022/12/19 05:53:17;;;;;;;16.25;10.23;;;11.40;99.90;;;;;;4811794;29;20106;-91
2022/12/19 05:55:44;;;;;;;16.45;10.68;;;11.40;99.90;;;;;;4811953;29;20438;-91
2022/12/19 05:58:11;;;;;;;15.88;10.45;;;11.40;99.90;;;;;;4812306;29;20141;-90
2022/12/19 06:01:04;;;;;;;14.30;10.15;;;11.30;99.90;;;;;;4812178;29;20037;-90
2022/12/19 06:03:37;;;;;;;16.50;10.13;;;11.30;99.90;;;;;;4811965;29;20050;-91
2022/12/19 06:06:06;;;;;;;12.35;9.80;;;11.30;99.90;;;;;;4811674;29;20038;-92
2022/12/19 06:08:33;;;;;;;14.98;10.30;;;11.30;99.90;;;;;;4826398;29;20065;-91
2022/12/19 06:11:03;;;;;;;20.67;10.45;;;11.30;99.90;;;;;;4811390;29;20051;-91
2022/12/19 06:13:33;;;;;;;15.80;10.30;;;11.30;99.90;;;;;;4811561;29;20041;-90
2022/12/19 06:16:18;;;;;;;16.52;10.82;;;11.30;99.90;;;;;;4811557;29;20031;-90
2022/12/19 06:18:46;;;;;;;11.68;10.25;;;11.30;99.90;;;;;;4810669;29;20043;-93
2022/12/19 06:21:27;;;;;;;19.48;10.15;;;11.30;99.90;;;;;;4811382;29;20495;-91
2022/12/19 06:23:57;;;;;;;12.75;10.18;;;11.30;99.90;;;;;;4811252;29;20086;-93
2022/12/19 06:26:24;;;;;;;14.23;9.88;;;11.30;99.90;;;;;;4811108;29;20084;-92
2022/12/19 06:28:51;;;;;;;16.08;10.75;;;11.30;99.90;;;;;;4826313;29;20042;-91
2022/12/19 06:31:20;;;;;;;19.05;10.25;;;11.40;99.90;;;;;;4811372;29;20118;-91
2022/12/19 06:33:47;;;;;;;19.27;10.40;;;11.40;99.90;;;;;;4811447;29;20497;-92
2022/12/19 06:36:16;;;;;;;11.45;9.23;;;11.40;99.90;;;;;;4811130;29;20034;-92
2022/12/19 06:38:43;;;;;;;12.45;10.35;;;11.40;99.90;;;;;;4811165;29;20035;-94
2022/12/19 06:43:59;;;;;;;16.05;11.23;;;11.50;99.90;;;;;;4826109;29;20037;-91
2022/12/19 06:46:26;;;;;;;15.15;11.70;;;11.70;99.90;;;;;;4813019;29;20030;-91
2022/12/19 06:48:53;;;;;;;18.92;11.88;;;11.80;99.90;;;;;;4814010;29;20069;-92
2022/12/19 06:51:20;;;;;;;18.30;12.57;;;12.00;99.90;;;;;;4814287;29;20034;-93
2022/12/19 06:53:46;;;;;;;18.95;12.45;;;12.20;99.90;;;;;;4813945;29;20121;-92
2022/12/19 06:56:15;;;;;;;14.40;12.93;;;12.30;99.90;;;;;;4813905;29;20036;-92
2022/12/19 06:58:42;;;;;;;16.63;13.88;;;12.40;99.90;;;;;;4813982;29;20496;-91
2022/12/19 07:01:20;;;;;;;14.50;13.20;;;12.40;99.90;;;;;;4813986;29;20033;-92
2022/12/19 07:03:48;;;;;;;18.60;14.48;;;12.40;99.90;;;;;;4813799;29;20046;-93
2022/12/19 07:06:15;;;;;;;19.40;14.27;;;12.40;99.90;;;;;;4814136;29;20385;-91
2022/12/19 07:08:41;;;;;;;18.00;14.93;;;12.50;99.90;;;;;;4813677;29;20046;-93
2022/12/19 07:11:08;;;;;;;15.30;13.80;;;12.60;99.90;;;;;;4813527;29;20037;-91
2022/12/19 07:13:35;;;;;;;18.10;14.82;;;12.60;99.90;;;;;;4813600;29;20034;-93
2022/12/19 07:16:04;;;;;;;20.15;14.57;;;12.60;99.90;;;;;;4813453;29;20038;-93
2022/12/19 07:18:49;;;;;;;16.23;14.90;;;12.70;99.90;;;;;;4813693;29;20053;-93
2022/12/19 07:21:16;;;;;;;20.88;15.75;;;12.70;99.90;;;;;;4813472;29;20037;-92
2022/12/19 07:23:43;;;;;;;21.58;14.18;;;12.80;99.90;;;;;;4813662;29;20030;-91
2022/12/19 07:26:10;;;;;;;32.55;14.02;;;12.80;99.90;;;;;;4813628;29;20045;-91
2022/12/19 07:28:37;;;;;;;15.73;13.63;;;12.80;99.90;;;;;;4814479;29;20034;-94
2022/12/19 07:31:04;;;;;;;16.95;13.65;;;12.90;99.90;;;;;;4813353;29;20030;-94
2022/12/19 07:33:42;;;;;;;14.50;13.10;;;12.90;99.90;;;;;;4813710;29;20136;-92
2022/12/19 07:36:12;;;;;;;16.55;13.75;;;13.00;99.90;;;;;;4828451;29;20038;-93
2022/12/19 07:38:39;;;;;;;17.75;13.80;;;12.90;99.90;;;;;;4813087;29;20042;-93
2022/12/19 07:41:06;;;;;;;14.52;13.05;;;13.00;99.90;;;;;;4814473;29;20034;-93
2022/12/19 07:43:32;;;;;;;15.90;13.10;;;13.00;99.90;;;;;;4813334;29;20034;-93
2022/12/19 07:46:05;;;;;;;19.50;14.80;;;13.10;99.90;;;;;;4814655;29;20030;-95
2022/12/19 07:48:32;;;;;;;16.70;13.68;;;13.10;99.90;;;;;;4809818;29;20148;-94
2022/12/19 07:51:05;;;;;;;17.00;14.07;;;13.10;99.90;;;;;;4830375;29;20057;-93
2022/12/19 07:53:31;;;;;;;16.17;13.20;;;13.10;99.90;;;;;;4813502;29;20034;-93
2022/12/19 07:55:58;;;;;;;14.10;12.90;;;13.10;99.90;;;;;;4814309;29;20029;-95
2022/12/19 07:58:31;;;;;;;15.10;13.70;;;13.20;99.90;;;;;;4812919;29;20553;-93
2022/12/19 08:01:05;;;;;;;16.95;13.25;;;13.30;99.90;;;;;;4812913;29;20038;-94
2022/12/19 08:03:32;;;;;;;16.13;14.77;;;13.40;99.90;;;;;;4813097;29;20033;-95
2022/12/19 08:06:04;;;;;;;21.90;14.52;;;13.40;99.90;;;;;;4812883;29;20117;-95
2022/12/19 08:08:32;;;;;;;18.13;14.13;;;13.40;99.90;;;;;;4813773;29;20044;-94
2022/12/19 08:11:29;;;;;;;15.18;13.60;;;13.40;99.90;;;;;;4815077;29;20059;-93
2022/12/19 08:13:57;;;;;;;15.05;13.80;;;13.50;99.90;;;;;;4813657;29;20468;-94
2022/12/19 08:16:42;;;;;;;18.85;14.35;;;13.50;99.90;;;;;;4812846;29;20041;-94
2022/12/19 08:19:08;;;;;;;16.73;15.07;;;13.50;99.90;;;;;;4812480;29;20034;-94
2022/12/19 08:21:35;;;;;;;17.27;15.70;;;13.60;99.90;;;;;;4812828;29;20118;-94
2022/12/19 08:24:02;;;;;;;17.25;15.55;;;13.50;99.90;;;;;;4812901;29;20026;-95
2022/12/19 08:26:44;;;;;;;23.92;15.27;;;13.70;99.90;;;;;;4812840;29;20090;-92
2022/12/19 08:29:10;;;;;;;21.80;15.90;;;13.70;99.90;;;;;;4812876;29;20094;-93
2022/12/19 08:31:37;;;;;;;20.70;15.68;;;13.60;99.90;;;;;;4812327;29;20029;-94
2022/12/19 08:34:06;;;;;;;19.95;15.15;;;13.70;99.90;;;;;;4812653;29;20473;-93
2022/12/19 08:36:33;;;;;;;17.55;15.95;;;13.70;99.90;;;;;;4812594;29;20041;-93
2022/12/19 08:41:54;;;;;;;18.77;16.20;;;13.70;99.90;;;;;;4827605;29;20045;-94
2022/12/19 08:44:21;;;;;;;17.73;16.17;;;13.70;99.90;;;;;;4812577;29;20048;-95
2022/12/19 08:47:01;;;;;;;19.42;16.58;;;13.80;99.90;;;;;;4809377;29;20058;-96
2022/12/19 08:49:31;;;;;;;18.38;16.67;;;13.80;99.90;;;;;;4808501;29;20050;-93
2022/12/19 09:07:31;;;;;;;19.30;17.08;;;13.80;99.90;;;;;;4824159;29;20470;-94
2022/12/19 09:10:04;;;;;;;18.42;16.00;;;13.90;99.90;;;;;;4810537;29;20034;-93
2022/12/19 09:12:31;;;;;;;17.83;16.05;;;13.90;99.90;;;;;;4825772;29;20026;-95
2022/12/19 09:15:16;;;;;;;17.80;16.30;;;14.10;99.90;;;;;;4809651;29;20053;-92
2022/12/19 09:17:43;;;;;;;17.50;15.85;;;14.00;99.90;;;;;;4824550;29;20057;-94
2022/12/19 09:20:15;;;;;;;17.30;15.75;;;14.00;99.90;;;;;;4824775;29;20460;-93
2022/12/19 09:22:42;;;;;;;17.58;15.80;;;14.10;99.90;;;;;;4824070;29;20082;-93
2022/12/19 09:25:09;;;;;;;20.02;16.00;;;14.20;99.90;;;;;;4824428;29;20042;-93
2022/12/19 09:27:42;;;;;;;18.55;16.88;;;14.20;99.90;;;;;;4824241;29;20030;-94
2022/12/19 09:30:11;;;;;;;18.70;16.92;;;14.30;99.90;;;;;;4810783;29;20038;-94
2022/12/19 09:32:41;;;;;;;19.05;17.38;;;14.30;99.90;;;;;;4854363;24;20062;-94
2022/12/19 09:35:07;;;;;;;18.10;16.33;;;14.30;99.90;;;;;;4828811;29;20026;-92
2022/12/19 09:37:37;;;;;;;19.23;17.25;;;14.20;99.90;;;;;;4812827;29;20167;-95
2022/12/19 09:40:16;;;;;;;18.50;16.70;;;14.20;99.90;;;;;;4827716;29;20393;-91
2022/12/19 09:43:06;;;;;;;17.67;15.98;;;14.20;99.90;;;;;;4842695;29;20045;-94
2022/12/19 09:45:39;;;;;;;17.98;16.27;;;14.30;99.90;;;;;;4809441;29;20031;-95
2022/12/19 09:48:32;;;;;;;19.05;17.20;;;14.50;99.90;;;;;;4791006;29;20043;-93
2022/12/19 09:51:06;;;;;;;20.85;16.15;;;14.60;99.90;;;;;;4791021;29;20047;-93
2022/12/19 09:53:57;;;;;;;18.02;16.52;;;14.60;99.90;;;;;;4790852;29;20039;-92
2022/12/19 09:56:32;;;;;;;20.55;16.38;;;14.50;99.90;;;;;;4793209;29;20049;-93
2022/12/19 09:59:25;;;;;;;20.10;17.00;;;14.40;99.90;;;;;;4793761;29;20477;-93
2022/12/19 10:02:36;;;;;;;18.38;16.88;;;14.30;99.90;;;;;;4793481;29;20079;-93
2022/12/19 10:05:22;;;;;;;19.33;16.83;;;14.10;99.90;;;;;;4764873;29;20150;-94
2022/12/19 10:07:48;;;;;;;18.52;16.73;;;14.10;99.90;;;;;;4793052;29;20045;-93
2022/12/19 10:10:44;;;;;;;17.75;16.10;;;14.30;99.90;;;;;;4778138;29;20031;-94
2022/12/19 10:13:28;;;;;;;18.27;16.60;;;14.30;99.90;;;;;;4779571;29;20039;-93
2022/12/19 10:16:19;;;;;;;18.58;16.83;;;14.40;99.90;;;;;;4778251;29;20153;-94
2022/12/19 10:19:07;;;;;;;18.33;16.65;;;14.50;99.90;;;;;;4778010;29;20049;-94
2022/12/19 10:22:26;;;;;;;20.55;16.40;;;14.60;99.90;;;;;;4793768;29;20027;-93
2022/12/19 10:25:26;;;;;;;18.67;16.98;;;14.70;99.90;;;;;;4728833;30;20040;-93
2022/12/19 10:28:05;;;;;;;17.67;16.20;;;14.50;99.90;;;;;;4756730;30;20066;-94
2022/12/19 10:30:43;;;;;;;17.10;15.60;;;14.30;99.90;;;;;;4757045;30;20097;-94
2022/12/19 10:33:31;;;;;;;18.08;16.45;;;14.40;99.90;;;;;;4756608;30;20517;-94
2022/12/19 10:36:00;;;;;;;17.67;16.20;;;14.60;99.90;;;;;;4756917;30;20574;-92
2022/12/19 10:39:03;;;;;;;18.30;16.63;;;14.80;99.90;;;;;;4756889;30;20439;-94
2022/12/19 10:41:54;;;;;;;18.65;16.90;;;14.40;99.90;;;;;;4756680;30;20039;-92
2022/12/19 10:44:23;;;;;;;18.98;17.27;;;14.60;99.90;;;;;;4756577;30;20043;-94
2022/12/19 10:46:50;;;;;;;19.70;17.60;;;14.60;99.90;;;;;;4756592;30;20096;-93
2022/12/19 10:49:23;;;;;;;18.42;17.00;;;14.70;99.90;;;;;;4756531;30;20510;-93
2022/12/19 10:51:59;;;;;;;19.05;17.23;;;14.70;99.90;;;;;;4756748;30;20118;-93
2022/12/19 10:54:40;;;;;;;18.33;16.98;;;14.80;99.90;;;;;;4762375;29;20054;-93
2022/12/19 10:57:26;;;;;;;18.63;16.80;;;14.80;99.90;;;;;;4810665;29;20552;-92
2022/12/19 10:59:59;;;;;;;18.40;16.60;;;14.50;99.90;;;;;;4811058;29;20038;-93
2022/12/19 11:02:38;;;;;;;17.42;16.02;;;14.40;99.90;;;;;;4810898;29;20070;-92
2022/12/19 11:05:18;;;;;;;18.40;16.80;;;14.50;99.90;;;;;;4810799;29;20030;-94
2022/12/19 11:08:05;;;;;;;18.35;17.00;;;14.60;99.90;;;;;;4810527;29;20030;-93
2022/12/19 11:10:46;;;;;;;17.90;16.45;;;14.60;99.90;;;;;;4825610;29;20039;-92
2022/12/19 11:13:28;;;;;;;18.27;16.33;;;14.50;99.90;;;;;;4810554;29;20506;-94
2022/12/19 11:15:58;;;;;;;17.45;15.90;;;14.40;99.90;;;;;;4810446;29;20042;-92
2022/12/19 11:18:38;;;;;;;17.38;15.98;;;14.30;99.90;;;;;;4810699;29;20485;-92
2022/12/19 11:21:23;;;;;;;16.45;15.13;;;14.30;99.90;;;;;;4810666;29;20038;-93
2022/12/19 11:23:58;;;;;;;18.67;17.17;;;14.50;99.90;;;;;;4795181;29;20396;-93
2022/12/19 11:26:46;;;;;;;17.73;16.25;;;14.60;99.90;;;;;;4810865;29;20034;-93
2022/12/19 11:29:16;;;;;;;19.05;16.80;;;14.60;99.90;;;;;;4825588;29;20042;-92
2022/12/19 11:31:46;;;;;;;18.75;16.92;;;14.60;99.90;;;;;;4811551;29;20034;-94
2022/12/19 11:34:22;;;;;;;21.20;16.75;;;14.50;99.90;;;;;;4813414;29;20042;-93
2022/12/19 11:36:55;;;;;;;19.15;17.38;;;14.50;99.90;;;;;;4813346;29;20073;-91
2022/12/19 11:39:39;;;;;;;20.58;16.80;;;14.40;99.90;;;;;;4828334;29;20121;-93
2022/12/19 11:42:08;;;;;;;21.90;17.42;;;14.40;99.90;;;;;;4828711;29;20034;-91
2022/12/19 11:44:59;;;;;;;18.75;17.05;;;14.50;99.90;;;;;;4813832;29;20030;-92
2022/12/19 11:47:52;;;;;;;17.95;16.30;;;14.60;99.90;;;;;;4828014;29;20034;-93
2022/12/19 11:50:29;;;;;;;18.63;16.85;;;14.40;99.90;;;;;;4828134;29;20066;-93
2022/12/19 11:53:07;;;;;;;18.60;17.17;;;14.40;99.90;;;;;;4812816;29;20032;-93
2022/12/19 11:56:08;;;;;;;19.45;17.88;;;14.30;99.90;;;;;;4812985;29;20396;-92
2022/12/19 11:58:35;;;;;;;18.75;17.05;;;14.30;99.90;;;;;;4812657;29;20072;-92
2022/12/19 12:01:19;;;;;;;17.75;16.42;;;14.30;99.90;;;;;;4812766;29;20036;-93
2022/12/19 12:04:07;;;;;;;18.63;16.88;;;14.30;99.90;;;;;;4812550;29;20030;-93
2022/12/19 12:06:45;;;;;;;18.38;16.70;;;14.20;99.90;;;;;;4812534;29;20041;-93
2022/12/19 12:09:44;;;;;;;19.98;16.85;;;14.20;99.90;;;;;;4812550;29;20408;-92
2022/12/19 12:12:32;;;;;;;27.15;22.10;;;14.30;99.90;;;;;;4813652;29;20036;-94
2022/12/19 12:15:20;;;;;;;22.00;19.80;;;14.30;99.90;;;;;;4812485;29;20062;-92
2022/12/19 12:18:15;;;;;;;19.55;17.33;;;14.30;99.90;;;;;;4811935;29;20074;-93
2022/12/19 12:21:03;;;;;;;21.17;19.15;;;14.30;99.90;;;;;;4812316;29;20453;-91
2022/12/19 12:24:17;;;;;;;16.13;14.60;;;14.20;99.90;;;;;;4827501;29;20045;-91
2022/12/19 12:27:12;;;;;;;17.85;16.25;;;14.20;99.90;;;;;;4769700;30;20124;-91
2022/12/19 12:30:03;;;;;;;21.65;15.40;;;14.10;99.90;;;;;;4730709;30;20078;-90
2022/12/19 12:33:05;;;;;;;15.63;13.55;;;14.10;99.90;;;;;;4754789;30;20051;-91
2022/12/19 12:35:39;;;;;;;14.10;12.93;;;14.10;99.90;;;;;;4740297;30;20062;-90
2022/12/19 12:38:17;;;;;;;15.85;14.43;;;14.20;99.90;;;;;;4754947;30;20048;-90
2022/12/19 12:40:52;;;;;;;15.20;13.82;;;14.20;99.90;;;;;;4740138;30;20490;-91
2022/12/19 12:43:42;;;;;;;15.82;14.20;;;14.20;99.90;;;;;;4740123;30;20043;-92
2022/12/19 12:46:18;;;;;;;15.13;13.63;;;14.20;99.90;;;;;;4769725;30;20123;-94
2022/12/19 12:49:05;;;;;;;15.32;13.23;;;14.20;99.90;;;;;;4754570;30;20136;-92
2022/12/19 12:51:33;;;;;;;16.20;13.32;;;14.10;99.90;;;;;;4755328;30;20031;-93
2022/12/19 12:54:06;;;;;;;14.60;13.30;;;14.10;99.90;;;;;;4754875;30;20060;-94
2022/12/19 12:56:35;;;;;;;17.30;14.00;;;14.10;99.90;;;;;;4754654;30;20498;-95
2022/12/19 12:59:21;;;;;;;21.45;13.40;;;14.10;99.90;;;;;;4755177;30;20039;-94
2022/12/19 13:02:12;;;;;;;17.83;13.63;;;14.10;99.90;;;;;;4754890;30;20039;-95
2022/12/19 13:04:55;;;;;;;15.35;13.30;;;14.00;99.90;;;;;;4781672;29;20072;-93
2022/12/19 13:07:50;;;;;;;16.48;13.20;;;14.00;99.90;;;;;;4868302;24;20058;-91
2022/12/19 13:10:32;;;;;;;15.98;14.55;;;14.00;99.90;;;;;;4824753;29;20149;-92
2022/12/19 13:13:13;;;;;;;15.35;12.93;;;14.00;99.90;;;;;;4808798;29;20049;-93
2022/12/19 13:15:44;;;;;;;19.08;13.02;;;13.90;99.90;;;;;;4824290;29;20062;-91
2022/12/19 13:18:33;;;;;;;15.57;13.20;;;13.90;99.90;;;;;;4809002;29;20078;-94
2022/12/19 13:21:02;;;;;;;15.10;13.25;;;13.90;99.90;;;;;;4809980;29;20103;-94
2022/12/19 13:23:29;;;;;;;16.42;13.77;;;13.90;99.90;;;;;;4809636;29;20067;-94
2022/12/19 13:40:46;;;;;;;29.40;18.98;;;13.70;99.90;;;;;;5188330;24;20122;-93
2022/12/19 13:44:00;;;;;;;18.55;14.27;;;13.70;99.90;;;;;;4878259;24;20045;-94
2022/12/19 13:46:47;;;;;;;17.73;15.82;;;13.60;99.90;;;;;;4836260;29;20513;-94
2022/12/19 14:43:53;;;;;;;15.68;14.25;;;13.00;99.90;;;;;;5890348;24;20091;-93
2022/12/19 15:01:00;;;;;;;19.33;14.85;;;12.70;99.90;;;;;;5062430;23;20053;-93
2022/12/19 15:03:34;;;;;;;15.52;13.90;;;12.70;99.90;;;;;;4814156;29;20091;-90
2022/12/19 15:06:14;;;;;;;15.37;13.83;;;12.60;99.90;;;;;;4796638;29;20091;-91
2022/12/19 15:08:41;;;;;;;18.27;14.27;;;12.60;99.90;;;;;;4796347;29;20042;-92
2022/12/19 15:14:14;;;;;;;22.33;16.35;;;12.50;99.90;;;;;;4810824;29;20031;-90
2022/12/19 15:16:40;;;;;;;16.67;14.20;;;12.40;99.90;;;;;;4795325;29;20169;-91
2022/12/19 15:19:16;;;;;;;19.45;14.95;;;12.40;99.90;;;;;;4795858;29;20520;-91
2022/12/19 15:21:43;;;;;;;16.63;14.20;;;12.40;99.90;;;;;;4792258;29;20451;-90
2022/12/19 15:24:09;;;;;;;19.17;14.95;;;12.30;99.90;;;;;;4792394;29;20027;-91
2022/12/19 15:26:47;;;;;;;17.63;13.25;;;12.30;99.90;;;;;;4792028;29;20038;-93
2022/12/19 15:29:13;;;;;;;20.65;16.02;;;12.30;99.90;;;;;;4792807;29;20050;-91
2022/12/19 15:31:42;;;;;;;20.88;16.05;;;12.20;99.90;;;;;;4819285;29;20049;-91
2022/12/19 15:34:28;;;;;;;17.85;14.48;;;12.20;99.90;;;;;;4825059;29;20121;-93
2022/12/19 15:36:56;;;;;;;18.30;13.80;;;12.10;99.90;;;;;;4809984;29;20507;-92
2022/12/19 15:39:23;;;;;;;16.95;15.18;;;12.10;99.90;;;;;;4794940;29;20038;-92
2022/12/19 15:41:52;;;;;;;22.67;14.88;;;12.00;99.90;;;;;;4825413;29;20035;-92
2022/12/19 15:44:33;;;;;;;14.38;12.88;;;12.00;99.90;;;;;;4795114;29;20031;-91
2022/12/19 15:47:06;;;;;;;19.30;13.75;;;12.00;99.90;;;;;;4794963;29;20053;-90
2022/12/19 15:49:51;;;;;;;15.45;13.00;;;11.90;99.90;;;;;;4803361;29;20039;-93
2022/12/19 15:52:20;;;;;;;15.50;12.50;;;11.90;99.90;;;;;;4776036;29;20064;-91
2022/12/19 15:54:49;;;;;;;19.38;13.90;;;11.90;99.90;;;;;;4776985;29;20040;-92
2022/12/19 15:57:31;;;;;;;15.45;12.30;;;11.80;99.90;;;;;;4776936;29;20058;-91
2022/12/19 16:00:01;;;;;;;18.10;14.82;;;11.80;99.90;;;;;;4773777;30;20051;-92
2022/12/19 16:02:32;;;;;;;24.98;20.17;;;11.80;99.90;;;;;;4789174;29;20035;-91